Time;durP1;ratioP1;P1;durP2;ratioP2;P2;SDS_P1;SDS_P2;PMS_P1;PMS_P2;Temp;Humidity;BMP_temperature;BMP_pressure;BME280_temperature;BME280_humidity;BME280_pressure;Samples;Min_cycle;Max_cycle;Signal;HPM_P1;HPM_P2
2023/05/06 07:23:22;;;;;;;12.00;8.48;;;;;;;-145.79;84.82;77720.66;5280090;28;20399;-73
2023/05/06 07:25:53;;;;;;;10.63;8.73;;;;;;;-145.79;85.25;77712.19;5271139;28;20107;-73
2023/05/06 07:28:25;;;;;;;15.23;9.75;;;;;;;-145.79;84.39;77712.19;5268583;28;20048;-73
2023/05/06 07:30:59;;;;;;;11.77;8.23;;;;;;;-145.79;84.61;77697.34;5275162;28;20032;-73
2023/05/06 07:33:30;;;;;;;12.40;9.82;;;;;;;-145.79;84.53;77695.22;5271389;28;20025;-73
2023/05/06 07:36:01;;;;;;;13.43;10.50;;;;;;;-145.79;84.34;77684.63;5279982;28;20040;-73
2023/05/06 07:38:33;;;;;;;12.65;9.32;;;;;;;-145.79;84.17;77665.56;5258175;28;20111;-74
2023/05/06 07:41:07;;;;;;;13.40;8.90;;;;;;;-145.79;84.24;77652.84;5259033;28;20112;-74
2023/05/06 07:43:38;;;;;;;12.95;9.50;;;;;;;-145.79;83.00;77652.84;5290877;28;20024;-73
2023/05/06 07:46:10;;;;;;;12.05;9.02;;;;;;;-145.79;83.09;77654.97;5299748;28;20032;-73
2023/05/06 07:48:41;;;;;;;12.57;8.65;;;;;;;-145.79;83.15;77648.59;5297272;28;20024;-73
2023/05/06 07:51:12;;;;;;;11.57;9.40;;;;;;;-145.79;83.29;77633.75;5279426;28;20025;-73
2023/05/06 07:53:44;;;;;;;11.27;8.35;;;;;;;-145.79;83.08;77623.16;5278424;28;20032;-73
2023/05/06 07:56:17;;;;;;;20.35;17.55;;;;;;;-145.79;82.40;77608.31;5277635;28;20100;-72
2023/05/06 07:58:48;;;;;;;11.02;8.23;;;;;;;-145.79;81.96;77601.97;5263159;28;20029;-74
2023/05/06 08:01:19;;;;;;;13.77;10.00;;;;;;;-145.79;81.83;77597.72;5258776;28;20075;-73
2023/05/06 08:03:51;;;;;;;17.40;13.38;;;;;;;-145.79;81.39;77576.53;5277317;28;20443;-74
2023/05/06 08:06:22;;;;;;;19.55;14.32;;;;;;;-145.79;79.55;77576.53;5279336;28;20047;-73
2023/05/06 08:08:53;;;;;;;19.58;11.18;;;;;;;-145.79;79.45;77563.81;5279688;28;20078;-74
2023/05/06 08:11:24;;;;;;;13.27;10.93;;;;;;;-145.79;79.85;77557.44;5279241;28;20044;-74
2023/05/06 08:13:56;;;;;;;21.80;13.50;;;;;;;-145.79;80.15;77555.31;5276988;28;20388;-72
2023/05/06 08:16:27;;;;;;;17.30;11.55;;;;;;;-145.79;78.58;77555.31;5268865;28;20027;-74
2023/05/06 08:18:58;;;;;;;34.70;29.20;;;;;;;-145.79;78.66;77544.72;5278860;28;20123;-76
2023/05/06 08:21:30;;;;;;;18.45;12.77;;;;;;;-145.79;77.75;77538.38;5278098;28;20123;-77
2023/05/06 08:24:01;;;;;;;17.48;11.90;;;;;;;-145.79;77.01;77534.13;5279157;28;20055;-76
2023/05/06 08:26:41;;;;;;;15.38;11.52;;;;;;;-145.79;76.91;77523.53;5277659;28;20120;-75
2023/05/06 08:29:13;;;;;;;12.73;10.60;;;;;;;-145.79;76.61;77512.94;5278189;28;20109;-74
2023/05/06 08:31:44;;;;;;;15.60;12.30;;;;;;;-145.79;77.09;77491.75;5278759;28;20099;-75
2023/05/06 08:34:19;;;;;;;11.73;9.70;;;;;;;-145.79;76.12;77489.63;5266060;28;20021;-75
2023/05/06 08:36:50;;;;;;;12.05;9.48;;;;;;;-145.79;76.03;77479.03;5264895;28;20071;-76
2023/05/06 08:39:22;;;;;;;11.65;8.63;;;;;;;-145.79;75.96;77459.94;5265065;28;20460;-77
2023/05/06 08:41:56;;;;;;;12.05;8.15;;;;;;;-145.79;74.77;77453.59;5265981;28;20484;-73
2023/05/06 08:44:28;;;;;;;12.98;7.90;;;;;;;-145.79;73.95;77453.59;5275355;28;20107;-74
2023/05/06 08:47:00;;;;;;;8.18;6.20;;;;;;;-145.79;73.42;77447.22;5265557;28;20101;-76
2023/05/06 08:49:31;;;;;;;14.63;12.23;;;;;;;-145.79;72.16;77436.63;5263453;28;20029;-76
2023/05/06 08:52:04;;;;;;;17.42;14.05;;;;;;;-145.79;71.03;77423.91;5279802;28;20074;-75
2023/05/06 08:54:37;;;;;;;12.13;10.93;;;;;;;-145.79;69.78;77426.03;5285665;28;20112;-75
2023/05/06 08:57:10;;;;;;;9.45;6.38;;;;;;;-145.79;70.35;77423.91;5271971;28;20033;-76
2023/05/06 08:59:42;;;;;;;10.30;7.28;;;;;;;-145.79;71.22;77411.19;5267451;28;20095;-75
2023/05/06 09:02:14;;;;;;;8.63;7.13;;;;;;;-145.79;71.60;77394.22;5266758;28;20049;-76
2023/05/06 09:04:46;;;;;;;11.15;6.78;;;;;;;-145.79;70.42;77394.22;5265902;28;20025;-76
2023/05/06 09:07:20;;;;;;;8.35;6.70;;;;;;;-145.79;70.55;77383.63;5264573;28;20085;-75
2023/05/06 09:09:51;;;;;;;8.32;5.47;;;;;;;-145.79;69.60;77394.22;5264122;28;20032;-75
2023/05/06 09:12:23;;;;;;;9.68;5.72;;;;;;;-145.79;69.66;77375.16;5265338;28;20021;-75
2023/05/06 09:14:55;;;;;;;7.00;4.90;;;;;;;-145.79;67.74;77377.28;5264950;28;20044;-75
2023/05/06 09:17:30;;;;;;;4.70;4.22;;;;;;;-145.79;65.44;77368.78;5263931;28;20021;-76
2023/05/06 09:20:02;;;;;;;6.10;5.53;;;;;;;-145.79;67.28;77351.84;5264170;28;20036;-74
2023/05/06 09:22:37;;;;;;;7.13;5.40;;;;;;;-145.79;67.46;77343.38;5263498;28;20049;-75
2023/05/06 09:25:11;;;;;;;7.63;5.57;;;;;;;-145.79;67.53;77326.41;5262534;28;20025;-72
2023/05/06 09:27:42;;;;;;;6.00;4.85;;;;;;;-145.79;67.05;77322.16;5263708;28;20017;-76
2023/05/06 09:30:14;;;;;;;6.15;4.80;;;;;;;-145.79;66.29;77317.94;5263350;28;20059;-75
2023/05/06 09:32:48;;;;;;;4.43;3.88;;;;;;;-145.79;65.77;77311.56;5263921;28;20021;-75
2023/05/06 09:35:19;;;;;;;6.28;3.65;;;;;;;-145.79;64.13;77307.31;5263636;28;20057;-75
2023/05/06 09:37:51;;;;;;;4.93;3.60;;;;;;;-145.79;64.03;77296.72;5262559;28;20067;-73
2023/05/06 09:40:23;;;;;;;4.78;3.00;;;;;;;-145.79;62.42;77296.72;5262541;28;20032;-72
2023/05/06 09:42:55;;;;;;;3.75;3.42;;;;;;;-145.79;62.97;77279.78;5263141;28;20028;-73
2023/05/06 09:45:27;;;;;;;4.97;3.20;;;;;;;-145.79;63.25;77256.47;5261924;28;20055;-73
2023/05/06 09:48:02;;;;;;;7.35;4.90;;;;;;;-145.79;63.09;77271.28;5257591;28;20109;-73
2023/05/06 09:50:35;;;;;;;4.20;3.03;;;;;;;-145.79;63.92;77245.84;5245112;28;20026;-74
2023/05/06 09:53:06;;;;;;;3.40;2.72;;;;;;;-145.79;63.36;77224.66;5247528;28;20057;-73
2023/05/06 09:55:38;;;;;;;3.70;2.70;;;;;;;-145.79;60.99;77220.44;5263854;28;20475;-70
2023/05/06 09:58:12;;;;;;;3.92;3.05;;;;;;;-145.79;60.53;77231.03;5255487;28;20117;-74
2023/05/06 10:00:43;;;;;;;8.55;3.42;;;;;;;-145.79;59.90;77224.66;5242151;28;20108;-75
2023/05/06 10:03:16;;;;;;;5.78;2.78;;;;;;;-145.79;59.78;77197.09;5242694;28;20121;-73
2023/05/06 10:05:49;;;;;;;5.38;1.50;;;;;;;-145.79;57.36;77207.72;5251415;28;20083;-74
2023/05/06 10:08:23;;;;;;;4.30;2.25;;;;;;;-145.79;57.19;77209.81;5263445;28;20363;-71
2023/05/06 10:10:55;;;;;;;4.85;3.15;;;;;;;-145.79;57.51;77211.94;5263031;28;20037;-70
2023/05/06 10:13:27;;;;;;;3.05;1.85;;;;;;;-145.79;55.80;77190.75;5262985;28;20021;-72
2023/05/06 10:16:00;;;;;;;3.75;2.17;;;;;;;-145.79;56.32;77175.91;5248359;28;20033;-73
2023/05/06 10:18:35;;;;;;;2.47;1.60;;;;;;;-145.79;55.06;77161.06;5242792;28;20079;-72
2023/05/06 10:21:16;;;;;;;3.40;1.90;;;;;;;-145.79;54.58;77169.56;5241245;28;20037;-74
2023/05/06 10:24:03;;;;;;;2.90;1.77;;;;;;;-145.79;54.56;77158.97;5242836;28;20465;-73
2023/05/06 10:26:36;;;;;;;3.42;2.08;;;;;;;-145.79;55.02;77144.13;5243105;28;20013;-73
2023/05/06 10:29:10;;;;;;;3.95;3.50;;;;;;;-145.79;55.98;77156.84;5283907;28;20063;-73
2023/05/06 10:31:50;;;;;;;4.80;3.17;;;;;;;-145.79;56.46;77152.59;5277709;28;20053;-73
2023/05/06 10:34:23;;;;;;;2.65;1.83;;;;;;;-145.79;57.29;77139.88;5255048;28;20029;-75
2023/05/06 10:36:57;;;;;;;3.13;1.92;;;;;;;-145.79;55.86;77125.03;5263505;28;20033;-73
2023/05/06 10:39:28;;;;;;;4.65;2.47;;;;;;;-145.79;56.24;77097.50;5262369;28;20075;-72
2023/05/06 10:42:01;;;;;;;2.40;2.15;;;;;;;-145.79;55.69;77089.00;5262061;28;20032;-72
2023/05/06 10:45:02;;;;;;;9.02;7.85;;;;;;;-145.79;55.28;77069.94;5262284;28;20083;-72
2023/05/06 10:47:56;;;;;;;4.22;2.10;;;;;;;-145.79;54.58;77059.34;5252395;28;20449;-73
2023/05/06 10:50:27;;;;;;;8.88;7.95;;;;;;;-145.79;54.37;77057.22;5243380;28;20025;-72
2023/05/06 10:52:58;;;;;;;5.95;4.75;;;;;;;-145.79;54.20;77065.69;5249342;28;20024;-72
2023/05/06 10:55:31;;;;;;;8.25;4.47;;;;;;;-145.79;54.44;77061.47;5278785;28;20114;-72
2023/05/06 10:58:10;;;;;;;12.18;11.07;;;;;;;-145.79;55.44;77063.59;5242271;28;20495;-73
2023/05/06 11:00:53;;;;;;;7.43;4.82;;;;;;;-145.79;55.63;77063.59;5241697;28;20051;-73
2023/05/06 11:03:25;;;;;;;8.27;7.28;;;;;;;-145.79;55.42;77069.94;5240550;28;20028;-72
2023/05/06 11:05:56;;;;;;;5.82;2.88;;;;;;;-145.79;55.25;77076.31;5252168;28;20377;-71
2023/05/06 11:08:30;;;;;;;6.97;6.18;;;;;;;-145.79;55.27;77074.19;5245664;28;20025;-71
2023/05/06 11:11:40;;;;;;;5.85;4.03;;;;;;;-145.79;54.87;77065.69;5243644;28;20077;-72
2023/05/06 11:14:12;;;;;;;3.10;2.40;;;;;;;-145.79;54.97;77059.34;5251840;28;20469;-72
2023/05/06 11:16:50;;;;;;;4.18;2.72;;;;;;;-145.79;55.14;77061.47;5240422;28;20025;-71
2023/05/06 11:19:27;;;;;;;2.42;1.80;;;;;;;-145.79;54.79;77072.06;5241152;28;20499;-73
2023/05/06 11:22:00;;;;;;;2.00;1.80;;;;;;;-145.79;55.21;77044.50;5240905;28;20160;-74
2023/05/06 11:24:40;;;;;;;3.42;1.77;;;;;;;-145.79;55.99;77019.06;5247456;28;20028;-74
2023/05/06 11:27:18;;;;;;;12.90;2.63;;;;;;;-145.79;55.66;77021.19;5265877;28;20028;-71
2023/05/06 11:29:49;;;;;;;4.22;2.28;;;;;;;-145.79;55.45;77016.94;5282039;28;20029;-72
2023/05/06 11:32:23;;;;;;;4.55;2.03;;;;;;;-145.79;54.46;76991.53;5263656;28;20115;-72
2023/05/06 11:34:55;;;;;;;4.90;1.50;;;;;;;-145.79;53.67;77012.72;5252069;28;20415;-70
2023/05/06 11:37:28;;;;;;;3.58;2.03;;;;;;;-145.79;53.36;77014.84;5240213;28;20026;-69
2023/05/06 11:40:00;;;;;;;3.05;1.45;;;;;;;-145.79;53.80;77004.25;5248142;28;20017;-70
2023/05/06 11:42:31;;;;;;;3.22;1.70;;;;;;;-145.79;53.11;77004.25;5241811;28;20025;-71
2023/05/06 11:45:03;;;;;;;4.20;1.40;;;;;;;-145.79;53.61;77006.34;5251166;28;20060;-71
2023/05/06 11:47:34;;;;;;;3.78;1.55;;;;;;;-145.79;53.22;77016.94;5240675;28;20477;-72
2023/05/06 11:50:08;;;;;;;1.75;1.50;;;;;;;-145.79;53.80;77008.47;5259577;28;20025;-72
2023/05/06 11:52:39;;;;;;;4.70;1.50;;;;;;;-145.79;54.18;76997.88;5256764;28;20487;-74
2023/05/06 11:55:11;;;;;;;2.95;1.60;;;;;;;-145.79;53.30;76991.53;5262870;28;20025;-72
2023/05/06 11:57:43;;;;;;;3.97;1.92;;;;;;;-145.79;53.64;76978.81;5251632;28;20017;-72
2023/05/06 12:00:17;;;;;;;5.13;3.38;;;;;;;-145.79;52.40;76970.31;5261001;28;20103;-72
2023/05/06 12:02:54;;;;;;;4.25;2.17;;;;;;;-145.79;52.00;76978.81;5248620;28;20033;-71
2023/05/06 12:05:27;;;;;;;3.75;1.52;;;;;;;-145.79;52.48;76978.81;5259582;28;20357;-71
2023/05/06 12:07:59;;;;;;;1.55;1.45;;;;;;;-145.79;53.02;76978.81;5258613;28;20036;-71
2023/05/06 12:10:30;;;;;;;4.20;1.33;;;;;;;-145.79;52.40;76987.28;5275756;28;20021;-71
2023/05/06 12:13:02;;;;;;;2.13;1.50;;;;;;;-145.79;53.07;76983.03;5264168;28;20032;-72
2023/05/06 12:15:34;;;;;;;1.95;1.33;;;;;;;-145.79;52.77;76983.03;5255555;28;20106;-72
2023/05/06 12:18:06;;;;;;;3.63;2.55;;;;;;;-145.79;53.62;76963.97;5257195;28;20033;-73
2023/05/06 12:20:37;;;;;;;2.83;1.70;;;;;;;-145.79;51.93;76936.41;5262691;28;20028;-74
2023/05/06 12:23:12;;;;;;;4.57;2.72;;;;;;;-145.79;52.42;76927.94;5263203;28;20053;-72
2023/05/06 12:25:44;;;;;;;2.13;1.30;;;;;;;-145.79;51.41;76925.81;5261584;28;20025;-72
2023/05/06 12:28:17;;;;;;;3.00;1.38;;;;;;;-145.79;51.37;76923.69;5262057;28;20025;-72
2023/05/06 12:30:51;;;;;;;5.70;3.42;;;;;;;-145.79;52.88;76923.69;5262275;28;20029;-72
2023/05/06 12:33:22;;;;;;;3.83;1.75;;;;;;;-145.79;51.25;76927.94;5262372;28;20021;-71
2023/05/06 12:36:06;;;;;;;4.35;1.70;;;;;;;-145.79;51.42;76938.53;5263716;28;20483;-71
2023/05/06 12:38:37;;;;;;;3.38;1.52;;;;;;;-145.79;51.16;76923.69;5262323;28;20317;-72
2023/05/06 12:41:09;;;;;;;4.80;2.28;;;;;;;-145.79;51.58;76913.09;5262552;28;20021;-71
2023/05/06 12:43:41;;;;;;;2.25;1.58;;;;;;;-145.79;51.15;76906.75;5262847;28;20099;-71
2023/05/06 12:46:14;;;;;;;2.63;1.75;;;;;;;-145.79;51.30;76906.75;5263521;28;20152;-71
2023/05/06 12:49:01;;;;;;;2.72;1.70;;;;;;;-145.79;50.63;76915.22;5260864;28;20052;-71
2023/05/06 12:51:35;;;;;;;3.88;1.70;;;;;;;-145.79;49.97;76896.16;5262045;28;20055;-71
2023/05/06 12:54:29;;;;;;;4.32;1.65;;;;;;;-145.79;50.25;76887.66;5262961;28;20508;-70
2023/05/06 12:57:01;;;;;;;3.47;1.50;;;;;;;-145.79;49.50;76872.84;5259189;28;20075;-70
2023/05/06 12:59:35;;;;;;;3.22;1.73;;;;;;;-145.79;48.89;76855.88;5261405;28;20044;-71
2023/05/06 13:02:06;;;;;;;3.78;1.95;;;;;;;-145.79;48.82;76862.25;5262183;28;20036;-72
2023/05/06 13:04:38;;;;;;;2.97;1.30;;;;;;;-145.79;48.17;76872.84;5261061;28;20021;-69
2023/05/06 13:07:09;;;;;;;4.25;1.30;;;;;;;-145.79;47.90;76866.47;5261877;28;20020;-71
2023/05/06 13:09:43;;;;;;;2.05;1.27;;;;;;;-145.79;47.88;76866.47;5262113;28;20017;-71
2023/05/06 13:12:15;;;;;;;2.33;1.30;;;;;;;-145.79;48.85;76853.75;5263799;28;20029;-70
2023/05/06 13:14:48;;;;;;;3.53;1.63;;;;;;;-145.79;47.79;76877.06;5263308;28;20396;-70
2023/05/06 13:17:19;;;;;;;2.03;1.27;;;;;;;-145.79;47.77;76864.34;5263229;28;20017;-70
2023/05/06 13:19:59;;;;;;;2.72;1.42;;;;;;;-145.79;47.76;76862.25;5262460;28;20020;-74
2023/05/06 13:22:31;;;;;;;2.70;1.50;;;;;;;-145.79;47.51;76864.34;5259096;28;20131;-71
2023/05/06 13:25:02;;;;;;;3.58;1.13;;;;;;;-145.79;47.36;76851.63;5262507;28;20559;-72
2023/05/06 13:27:34;;;;;;;2.53;1.15;;;;;;;-145.79;47.50;76855.88;5263171;28;20380;-71
2023/05/06 13:30:07;;;;;;;3.38;1.50;;;;;;;-145.79;47.97;76853.75;5261288;28;20036;-71
2023/05/06 13:32:38;;;;;;;3.15;1.60;;;;;;;-145.79;47.93;76836.81;5262331;28;20043;-71
2023/05/06 13:35:10;;;;;;;5.60;1.50;;;;;;;-145.79;47.14;76836.81;5262280;28;20396;-71
2023/05/06 13:37:41;;;;;;;2.45;1.27;;;;;;;-145.79;46.89;76826.22;5259957;28;20096;-70
2023/05/06 13:40:13;;;;;;;1.73;1.17;;;;;;;-145.79;47.37;76826.22;5260066;28;20032;-71
2023/05/06 13:42:44;;;;;;;2.78;1.30;;;;;;;-145.79;46.00;76832.56;5261765;28;20032;-71
2023/05/06 13:45:16;;;;;;;3.35;1.70;;;;;;;-145.79;46.85;76819.84;5260376;28;20449;-68
2023/05/06 13:47:47;;;;;;;4.40;1.90;;;;;;;-145.79;46.47;76813.50;5261564;28;20396;-69
2023/05/06 13:50:21;;;;;;;2.42;1.15;;;;;;;-145.79;47.14;76809.25;5257588;28;20093;-71
2023/05/06 13:52:52;;;;;;;4.53;1.63;;;;;;;-145.79;46.46;76813.50;5258950;28;20012;-72
2023/05/06 13:55:23;;;;;;;3.92;1.50;;;;;;;-145.79;46.81;76819.84;5261661;28;20032;-71
2023/05/06 13:57:55;;;;;;;5.03;1.58;;;;;;;-145.79;47.72;76811.38;5263081;28;20499;-71
2023/05/06 14:00:26;;;;;;;4.78;1.40;;;;;;;-145.79;46.36;76832.56;5262217;28;20021;-70
2023/05/06 14:02:58;;;;;;;2.47;1.40;;;;;;;-145.79;47.19;76832.56;5265753;28;20471;-71
2023/05/06 14:05:29;;;;;;;3.53;2.25;;;;;;;-145.79;47.47;76813.50;5262412;28;20024;-71
2023/05/06 14:08:03;;;;;;;3.58;1.70;;;;;;;-145.79;47.31;76813.50;5261726;28;20017;-72
2023/05/06 14:10:34;;;;;;;3.70;1.40;;;;;;;-145.79;47.82;76866.47;5262372;28;20464;-70
2023/05/06 14:13:06;;;;;;;4.53;1.98;;;;;;;-145.79;47.21;76843.16;5258481;28;20075;-69
2023/05/06 14:15:37;;;;;;;3.70;1.42;;;;;;;-145.79;47.84;76817.72;5277809;28;20100;-69
2023/05/06 14:18:08;;;;;;;3.15;1.48;;;;;;;-145.79;47.52;76811.38;5283788;28;20028;-71
2023/05/06 14:20:40;;;;;;;3.28;1.42;;;;;;;-145.79;46.47;76809.25;5278750;28;20030;-69
2023/05/06 14:23:11;;;;;;;3.17;1.58;;;;;;;-145.79;46.60;76813.50;5249308;28;20172;-71
2023/05/06 14:25:42;;;;;;;4.43;1.30;;;;;;;-145.79;46.37;76811.38;5260838;28;20029;-71
2023/05/06 14:28:14;;;;;;;2.83;1.80;;;;;;;-145.79;47.03;76805.00;5262590;28;20374;-70
2023/05/06 14:30:46;;;;;;;3.08;1.80;;;;;;;-145.79;46.72;76802.91;5261933;28;20033;-72
2023/05/06 14:33:22;;;;;;;4.50;1.77;;;;;;;-145.79;47.07;76800.78;5251370;28;20028;-73
2023/05/06 14:35:53;;;;;;;4.22;2.13;;;;;;;-145.79;45.88;76809.25;5262107;28;20021;-72
2023/05/06 14:38:24;;;;;;;2.72;1.50;;;;;;;-145.79;46.47;76809.25;5262580;28;20488;-70
2023/05/06 14:40:57;;;;;;;4.20;1.70;;;;;;;-145.79;46.19;76809.25;5261578;28;20507;-71
2023/05/06 14:43:28;;;;;;;4.22;1.40;;;;;;;-145.79;46.75;76809.25;5261821;28;20028;-70
2023/05/06 14:46:00;;;;;;;4.88;1.05;;;;;;;-145.79;46.98;76800.78;5263118;28;20499;-70
2023/05/06 14:48:31;;;;;;;2.40;1.38;;;;;;;-145.79;46.63;76813.50;5242336;28;20053;-70
2023/05/06 14:51:02;;;;;;;2.38;0.98;;;;;;;-145.79;46.79;76813.50;5241918;28;20022;-72
2023/05/06 14:53:34;;;;;;;3.03;1.67;;;;;;;-145.79;47.11;76800.78;5242597;28;20072;-71
2023/05/06 14:56:09;;;;;;;4.80;1.60;;;;;;;-145.79;46.64;76813.50;5240871;28;20063;-73
2023/05/06 14:58:41;;;;;;;2.58;1.50;;;;;;;-145.79;47.06;76811.38;5241495;28;20665;-71
2023/05/06 15:01:15;;;;;;;4.00;2.00;;;;;;;-145.79;47.03;76807.13;5240698;28;20500;-71
2023/05/06 15:03:49;;;;;;;3.58;1.23;;;;;;;-145.79;47.18;76817.72;5250066;28;20040;-72
2023/05/06 15:06:20;;;;;;;10.90;9.82;;;;;;;-145.79;46.95;76813.50;5252318;28;20044;-71
2023/05/06 15:08:52;;;;;;;25.00;22.52;;;;;;;-145.79;47.01;76826.22;5258264;28;20025;-72
2023/05/06 15:11:33;;;;;;;3.78;2.20;;;;;;;-145.79;46.69;76841.03;5257706;28;20026;-71
2023/05/06 15:14:05;;;;;;;24.80;22.38;;;;;;;-145.79;46.91;76838.94;5251291;28;20043;-72
2023/05/06 15:16:36;;;;;;;5.75;2.58;;;;;;;-145.79;47.03;76845.28;5261535;28;20033;-71
2023/05/06 15:19:09;;;;;;;4.75;2.03;;;;;;;-145.79;49.40;76872.84;5244238;28;20017;-70
2023/05/06 15:21:40;;;;;;;4.97;3.40;;;;;;;-145.79;52.13;76898.25;5252824;28;20556;-71
2023/05/06 15:24:11;;;;;;;3.28;1.88;;;;;;;-145.79;53.26;76910.97;5254004;28;20109;-71
2023/05/06 15:26:43;;;;;;;3.65;2.30;;;;;;;-145.79;54.27;76932.19;5241273;28;20017;-83
2023/05/06 15:29:16;;;;;;;7.63;6.72;;;;;;;-145.79;52.76;76949.13;5282920;28;20029;-75
2023/05/06 15:31:47;;;;;;;4.55;3.00;;;;;;;-145.79;54.49;76953.38;5281904;28;20021;-76
2023/05/06 15:34:19;;;;;;;1.80;1.50;;;;;;;-145.79;55.59;76980.94;5282761;28;20025;-76
2023/05/06 15:36:52;;;;;;;3.28;2.17;;;;;;;-145.79;57.77;77004.25;5281174;28;20111;-78
2023/05/06 15:39:24;;;;;;;3.00;2.25;;;;;;;-145.79;57.39;77012.72;5245126;28;20029;-80
2023/05/06 15:41:57;;;;;;;2.45;2.22;;;;;;;-145.79;54.11;77016.94;5244993;28;20048;-79
2023/05/06 15:44:28;;;;;;;2.30;1.60;;;;;;;-145.79;53.58;77016.94;5256054;28;20059;-78
2023/05/06 15:46:59;;;;;;;2.17;1.50;;;;;;;-145.79;53.56;77012.72;5256857;28;20116;-78
2023/05/06 15:49:31;;;;;;;1.92;1.33;;;;;;;-145.79;53.22;77016.94;5260540;28;20064;-78
2023/05/06 15:52:02;;;;;;;3.70;2.03;;;;;;;-145.79;54.51;77012.72;5283790;28;20016;-78
2023/05/06 15:54:35;;;;;;;4.20;3.60;;;;;;;-145.79;55.93;77016.94;5279868;28;20025;-78
2023/05/06 15:57:06;;;;;;;7.43;3.70;;;;;;;-145.79;56.65;77031.78;5244332;28;20377;-79
2023/05/06 15:59:37;;;;;;;4.18;2.10;;;;;;;-145.79;58.73;77029.66;5244960;28;20030;-78
2023/05/06 16:02:09;;;;;;;3.42;2.17;;;;;;;-145.79;59.67;77044.50;5250268;28;20123;-79
2023/05/06 16:04:40;;;;;;;3.13;1.90;;;;;;;-145.79;60.55;77040.25;5275998;28;20116;-83
2023/05/06 16:07:12;;;;;;;3.35;2.13;;;;;;;-145.79;62.11;77050.88;5266418;28;20103;-82
2023/05/06 16:09:43;;;;;;;4.45;1.95;;;;;;;-145.79;63.53;77059.34;5266014;28;20021;-83
2023/05/06 16:12:17;;;;;;;3.83;2.28;;;;;;;-145.79;65.09;77069.94;5257948;28;20116;-82
2023/05/06 16:14:48;;;;;;;10.45;6.20;;;;;;;-145.79;65.89;77065.69;5248355;28;20381;-81
2023/05/06 16:17:22;;;;;;;3.67;3.13;;;;;;;-145.79;67.29;77076.31;5247428;28;20029;-81
2023/05/06 16:19:56;;;;;;;4.63;2.75;;;;;;;-145.79;66.84;77074.19;5253572;28;20045;-81
2023/05/06 16:22:27;;;;;;;4.45;2.38;;;;;;;-145.79;67.71;77080.53;5253548;28;20497;-80
2023/05/06 16:24:58;;;;;;;4.15;2.63;;;;;;;-145.79;67.46;77086.91;5262028;28;20050;-80
2023/05/06 16:27:31;;;;;;;5.97;2.80;;;;;;;-145.79;67.06;77110.22;5269090;28;20013;-81
2023/05/06 16:30:03;;;;;;;4.30;2.88;;;;;;;-145.79;67.70;77095.38;5251221;28;20592;-81
2023/05/06 16:32:38;;;;;;;5.82;2.75;;;;;;;-145.79;67.97;77105.97;5245088;28;20072;-82
2023/05/06 16:35:10;;;;;;;3.63;2.60;;;;;;;-145.79;66.98;77116.56;5247499;28;20033;-81
2023/05/06 16:37:50;;;;;;;3.47;3.13;;;;;;;-145.79;67.66;77103.84;5246855;28;20079;-83
2023/05/06 16:40:22;;;;;;;4.97;2.92;;;;;;;-145.79;67.44;77099.63;5246116;28;20085;-82
2023/05/06 16:42:53;;;;;;;3.45;1.75;;;;;;;-145.79;66.27;77116.56;5245951;28;20084;-81
2023/05/06 16:45:25;;;;;;;4.32;1.95;;;;;;;-145.79;66.09;77114.44;5246148;28;20025;-80
2023/05/06 16:48:02;;;;;;;5.18;2.47;;;;;;;-145.79;66.61;77101.72;5263585;28;20021;-82
2023/05/06 16:50:33;;;;;;;2.92;2.47;;;;;;;-145.79;66.01;77105.97;5276448;28;20032;-78
2023/05/06 16:53:06;;;;;;;3.75;2.20;;;;;;;-145.79;65.70;77112.31;5291282;28;20020;-82
